Frankfort, MI

10:13 PM EST on December 27, 2014 (GMT -0500)
Frankfort | Change Station
CLOSE
Current Station
Airport
Location: Frankfort,
Elevation: 633 ft
Nearby Weather Stations
Active Advisory: Special Statement

Elev 633 ft 44.63 °N, 86.20 °W | Updated 20 minutes ago

Mostly Cloudy
Mostly Cloudy
33 °F
Feels Like 30 °F
N
4
Wind Variable Wind from NNW

Today
High -- | Low -- °F
--% Chance of Precip.
Yesterday
High -- | Low -- °F
Precip. -- in
8:20 AM 5:11 PM
Waxing Crescent, 43% visible
Pressure 29.98 in
Visibility 10.0 miles
Clouds Mostly Cloudy 4000 ft
Windchill 30 °F
Dew Point 30 °F
Humidity 90%
Rainfall 0.00 in
Snow Depth Not available.
UV 0 out of 12
Pollen .10 out of 12
Air Quality Not available.
Flu Activity Not available.
METAR KFKS 280253Z AUTO 33003KT 10SM BKN040 01/M01 A2998 RMK AO2 T00051010

More Conditions Fewer Conditions

Pressure 29.98 in
Visibility 10.0 miles
Clouds Mostly Cloudy 4000 ft
Windchill 30 °F
Dew Point 30 °F
Humidity 90%
Rainfall 0.00 in
Snow Depth Not available.
UV 0 out of 12
Pollen .10 out of 12
Air Quality Not available.
Flu Activity Not available.
METAR KFKS 280253Z AUTO 33003KT 10SM BKN040 01/M01 A2998 RMK AO2 T00051010

More Conditions Fewer Conditions

Nowcast | as of 10:00 PM EST on December 27, 2014

At 11 PM...mostly cloudy. Scattered flurries. Temperature 35. Northwest winds 10 mph. At 1 am...partly cloudy. Scattered flurries. Temperature 34. West winds 14 mph. At 3 am...partly cloudy. Scattered flurries. Temperature 30. West winds 13 mph. At 5 am...partly cloudy. Scattered flurries. Temperature 28. West winds 13 mph.

×

10-Day Weather Forecast

Almanac

Astronomy

Dec. 27, 2014 Rise Set
Actual Time
Civil Twilight
Nautical Twilight
Astronomical Twilight
Moon
Length of Visible Light
Length of Day
Tomorrow will be .
, % of the Moon is Illuminated

Today's Extremes

State Highs State Lows

Community

WunderPhotos

Upload Photos

1,781,171 photos uploaded!

WunderBlogs® & News

Nearby

Air Quality

  Air Quality AQ Index Pollutant
Not available.

Snow Depth

Station Depth Elevation

Earthquake Activity

City Distance Mag. Time & Date
Minimum magnitude displayed is 2.5.

Coastal Water Temperatures

Place Temperature

Nearby Weather Stations